createdAt,value
2019-04-27T00:00:58.875Z,99.90
2019-04-27T00:03:28.100Z,99.90
2019-04-27T00:05:59.149Z,99.90
2019-04-27T00:08:35.062Z,99.90
2019-04-27T00:11:06.849Z,99.40
2019-04-27T00:13:40.416Z,98.60
2019-04-27T00:16:10.015Z,98.30
2019-04-27T00:18:40.410Z,97.70
2019-04-27T00:21:11.607Z,97.40
2019-04-27T00:23:42.998Z,96.80
2019-04-27T00:26:13.108Z,96.70
2019-04-27T00:28:43.422Z,96.30
2019-04-27T00:31:13.315Z,96.20
2019-04-27T00:33:43.470Z,96.10
2019-04-27T00:36:14.936Z,95.80
2019-04-27T00:38:46.280Z,95.80
2019-04-27T00:41:19.147Z,95.60
2019-04-27T00:43:48.974Z,95.70
2019-04-27T00:46:19.625Z,95.60
2019-04-27T00:48:50.539Z,95.60
2019-04-27T00:51:20.146Z,95.40
2019-04-27T00:53:49.656Z,95.40
2019-04-27T00:56:20.924Z,95.40
2019-04-27T00:58:53.594Z,95.20
2019-04-27T01:01:24.934Z,95.20
2019-04-27T01:03:56.278Z,95.30
2019-04-27T01:06:25.873Z,95.40
2019-04-27T01:08:55.524Z,95.20
2019-04-27T01:11:25.200Z,95.10
2019-04-27T01:13:54.774Z,95.10
2019-04-27T01:16:24.394Z,94.80
2019-04-27T01:18:53.918Z,94.60
2019-04-27T01:21:23.408Z,94.70
2019-04-27T01:23:53.028Z,94.70
2019-04-27T01:26:24.583Z,94.50
2019-04-27T01:28:55.716Z,94.40
2019-04-27T01:31:25.193Z,94.30
2019-04-27T01:33:54.732Z,94.20
2019-04-27T01:36:24.126Z,94.00
2019-04-27T01:38:53.597Z,94.00
2019-04-27T01:41:23.142Z,93.80
2019-04-27T01:43:52.498Z,93.60
2019-04-27T01:46:21.951Z,93.80
2019-04-27T01:48:51.440Z,93.80
2019-04-27T01:51:21.158Z,93.60
2019-04-27T01:53:50.758Z,93.70
2019-04-27T01:56:20.362Z,93.70
2019-04-27T01:58:50.293Z,93.60
2019-04-27T02:01:21.632Z,93.80
2019-04-27T02:03:53.104Z,94.00
2019-04-27T02:06:24.228Z,94.00
2019-04-27T02:08:53.839Z,94.20
2019-04-27T02:11:23.439Z,94.30
2019-04-27T02:13:53.030Z,94.40
2019-04-27T02:16:22.557Z,94.70
2019-04-27T02:18:52.165Z,94.70
2019-04-27T02:21:21.997Z,95.00
2019-04-27T02:23:51.658Z,94.90
2019-04-27T02:26:22.697Z,95.00
2019-04-27T02:28:53.723Z,95.20
2019-04-27T02:31:24.769Z,95.30
2019-04-27T02:33:55.786Z,95.30
2019-04-27T02:36:25.355Z,95.50
2019-04-27T02:38:54.859Z,95.40
2019-04-27T02:41:24.311Z,95.40
2019-04-27T02:43:55.589Z,95.70
2019-04-27T02:46:25.121Z,95.20
2019-04-27T02:49:00.064Z,95.20
2019-04-27T02:51:27.324Z,95.20
2019-04-27T02:54:00.234Z,95.40
2019-04-27T02:56:30.529Z,95.40
2019-04-27T02:59:00.323Z,95.40
2019-04-27T03:01:31.573Z,95.70
2019-04-27T03:04:01.364Z,95.60
2019-04-27T03:06:30.841Z,95.60
2019-04-27T03:09:00.838Z,96.00
2019-04-27T03:11:32.460Z,95.90
2019-04-27T03:14:03.629Z,95.80
2019-04-27T03:16:34.758Z,95.90
2019-04-27T03:19:14.971Z,96.30
2019-04-27T03:21:39.600Z,96.30
2019-04-27T03:24:09.925Z,96.20
2019-04-27T03:26:41.951Z,96.40
2019-04-27T03:29:11.875Z,96.70
2019-04-27T03:31:42.568Z,96.50
2019-04-27T03:34:16.340Z,96.70
2019-04-27T03:36:43.971Z,96.60
2019-04-27T03:39:13.695Z,96.50
2019-04-27T03:41:43.298Z,96.60
2019-04-27T03:44:13.514Z,96.90
2019-04-27T03:46:43.124Z,96.60
2019-04-27T03:49:27.786Z,96.40
2019-04-27T03:51:45.599Z,96.50
2019-04-27T03:54:19.410Z,96.40
2019-04-27T03:56:50.857Z,96.40
2019-04-27T03:59:22.273Z,96.30
2019-04-27T04:01:51.926Z,96.40
2019-04-27T04:04:21.828Z,96.80
2019-04-27T04:06:51.444Z,96.30
2019-04-27T04:09:22.694Z,96.50
2019-04-27T04:11:53.798Z,96.50
2019-04-27T04:14:24.840Z,96.30
2019-04-27T04:17:01.724Z,96.20
2019-04-27T04:19:29.588Z,96.20
2019-04-27T04:21:59.809Z,96.20
2019-04-27T04:24:31.816Z,96.30
2019-04-27T04:27:00.713Z,96.30
2019-04-27T04:29:30.760Z,95.80
2019-04-27T04:32:00.683Z,95.70
2019-04-27T04:34:30.225Z,96.00
2019-04-27T04:37:00.615Z,96.00
2019-04-27T04:39:31.503Z,95.60
2019-04-27T04:42:02.531Z,95.50
2019-04-27T04:44:33.773Z,95.50
2019-04-27T04:47:04.869Z,95.20
2019-04-27T04:49:34.525Z,95.00
2019-04-27T04:52:03.960Z,95.60
2019-04-27T04:54:33.544Z,95.30
2019-04-27T04:57:03.144Z,94.90
2019-04-27T04:59:43.732Z,94.70
2019-04-27T05:02:12.793Z,95.10
2019-04-27T05:04:42.477Z,94.80
2019-04-27T05:07:17.102Z,94.90
2019-04-27T05:09:56.022Z,94.70
2019-04-27T05:12:26.132Z,94.40
2019-04-27T05:14:59.068Z,94.20
2019-04-27T05:17:31.582Z,94.30
2019-04-27T05:20:02.775Z,94.60
2019-04-27T05:22:32.392Z,94.00
2019-04-27T05:25:01.968Z,93.90
2019-04-27T05:27:31.714Z,93.40
2019-04-27T05:30:01.306Z,93.00
2019-04-27T05:32:31.973Z,92.90
2019-04-27T05:35:01.499Z,92.40
2019-04-27T05:37:31.790Z,91.90
2019-04-27T05:40:01.581Z,91.60
2019-04-27T05:42:30.944Z,90.70
2019-04-27T05:45:03.451Z,91.30
2019-04-27T05:47:34.711Z,90.90
2019-04-27T05:50:06.947Z,90.20
2019-04-27T05:52:36.366Z,90.20
2019-04-27T05:55:06.709Z,90.00
2019-04-27T05:57:36.081Z,88.10
2019-04-27T06:00:09.160Z,88.50
2019-04-27T06:02:39.822Z,87.80
2019-04-27T06:05:09.886Z,87.40
2019-04-27T06:07:39.683Z,86.60
2019-04-27T06:10:10.472Z,87.60
2019-04-27T06:12:39.981Z,85.70
2019-04-27T06:15:09.888Z,85.50
2019-04-27T06:17:39.298Z,81.90
2019-04-27T06:20:09.197Z,84.40
2019-04-27T06:22:39.106Z,82.50
2019-04-27T06:25:11.794Z,83.00
2019-04-27T06:27:39.867Z,83.60
2019-04-27T06:30:11.732Z,83.50
2019-04-27T06:32:41.135Z,85.50
2019-04-27T06:35:12.381Z,84.70
2019-04-27T06:37:41.956Z,84.80
2019-04-27T06:40:12.331Z,83.70
2019-04-27T06:42:41.816Z,85.50
2019-04-27T06:45:11.383Z,88.00
2019-04-27T06:47:41.473Z,86.50
2019-04-27T06:50:12.148Z,88.30
2019-04-27T06:52:41.522Z,87.80
2019-04-27T06:55:10.951Z,88.80
2019-04-27T06:57:41.243Z,88.90
2019-04-27T07:00:11.113Z,88.50
2019-04-27T07:02:40.615Z,86.40
2019-04-27T07:05:10.110Z,86.70
2019-04-27T07:07:39.677Z,88.80
2019-04-27T07:10:09.209Z,86.60
2019-04-27T07:12:40.982Z,85.70
2019-04-27T07:15:09.984Z,87.40
2019-04-27T07:17:39.341Z,88.00
2019-04-27T07:20:09.163Z,90.20
2019-04-27T07:22:39.666Z,90.40
2019-04-27T07:25:09.313Z,90.60
2019-04-27T07:27:39.454Z,89.60
2019-04-27T07:30:11.761Z,87.10
2019-04-27T07:32:41.586Z,87.10
2019-04-27T07:35:11.218Z,87.90
2019-04-27T07:37:40.647Z,86.50
2019-04-27T07:40:10.476Z,86.30
2019-04-27T07:42:41.600Z,84.30
2019-04-27T07:45:12.760Z,83.80
2019-04-27T07:47:43.844Z,85.60
2019-04-27T07:50:13.636Z,86.70
2019-04-27T07:52:43.115Z,85.70
2019-04-27T07:55:12.725Z,86.40
2019-04-27T07:57:42.315Z,85.90
2019-04-27T08:00:12.448Z,83.40
2019-04-27T08:02:41.943Z,84.30
2019-04-27T08:05:11.772Z,84.00
2019-04-27T08:07:41.266Z,81.10
2019-04-27T08:10:10.964Z,84.40
2019-04-27T08:12:40.683Z,81.10
2019-04-27T08:15:10.446Z,85.20
2019-04-27T08:17:42.412Z,82.90
2019-04-27T08:20:11.503Z,85.30
2019-04-27T08:22:41.046Z,85.60
2019-04-27T08:25:10.561Z,82.90
2019-04-27T08:27:41.713Z,84.00
2019-04-27T08:30:12.969Z,88.40
2019-04-27T08:32:44.778Z,90.20
2019-04-27T08:35:14.530Z,85.50
2019-04-27T08:37:44.016Z,87.00
2019-04-27T08:40:13.973Z,87.50
2019-04-27T08:42:43.547Z,88.20
2019-04-27T08:45:13.257Z,89.30
2019-04-27T08:47:42.757Z,88.80
2019-04-27T08:50:12.347Z,89.50
2019-04-27T08:52:42.028Z,87.20
2019-04-27T08:55:11.786Z,88.10
2019-04-27T08:57:41.285Z,86.20
2019-04-27T09:00:11.308Z,89.80
2019-04-27T09:02:46.786Z,90.20
2019-04-27T09:05:12.574Z,88.20
2019-04-27T09:07:43.711Z,88.00
2019-04-27T09:10:13.749Z,89.30
2019-04-27T09:12:44.861Z,85.70
2019-04-27T09:15:16.219Z,89.40
2019-04-27T09:17:48.833Z,90.80
2019-04-27T09:20:20.142Z,90.10
2019-04-27T09:22:49.660Z,88.30
2019-04-27T09:25:19.386Z,88.30
2019-04-27T09:27:49.344Z,91.40
2019-04-27T09:30:20.110Z,85.70
2019-04-27T09:32:49.676Z,83.40
2019-04-27T09:35:19.214Z,81.00
2019-04-27T09:37:48.734Z,81.70
2019-04-27T09:40:21.199Z,79.90
2019-04-27T09:42:50.702Z,78.40
2019-04-27T09:45:21.439Z,79.60
2019-04-27T09:47:50.943Z,78.20
2019-04-27T09:50:21.280Z,80.10
2019-04-27T09:52:50.759Z,81.80
2019-04-27T09:55:21.356Z,84.00
2019-04-27T09:57:50.806Z,82.70
2019-04-27T10:00:21.806Z,81.90
2019-04-27T10:02:51.355Z,80.10
2019-04-27T10:05:20.908Z,82.50
2019-04-27T10:07:50.564Z,81.80
2019-04-27T10:10:20.556Z,80.70
2019-04-27T10:12:50.022Z,80.20
2019-04-27T10:15:20.555Z,81.70
2019-04-27T10:17:49.921Z,81.40
2019-04-27T10:20:20.022Z,85.70
2019-04-27T10:22:49.799Z,84.20
2019-04-27T10:25:20.974Z,81.90
2019-04-27T10:27:55.385Z,79.10
2019-04-27T10:30:25.786Z,81.10
2019-04-27T10:32:55.456Z,83.40
2019-04-27T10:35:26.018Z,83.40
2019-04-27T10:37:55.504Z,84.30
2019-04-27T10:40:26.388Z,82.20
2019-04-27T10:42:56.161Z,86.00
2019-04-27T10:45:29.032Z,80.00
2019-04-27T10:48:00.656Z,83.70
2019-04-27T10:50:30.152Z,80.90
2019-04-27T10:52:59.542Z,85.60
2019-04-27T10:55:29.379Z,83.90
2019-04-27T10:57:59.285Z,84.90
2019-04-27T11:00:30.404Z,84.10
2019-04-27T11:03:01.235Z,88.20
2019-04-27T11:05:33.403Z,88.40
2019-04-27T11:08:02.852Z,84.80
2019-04-27T11:10:32.235Z,85.80
2019-04-27T11:13:01.668Z,82.60
2019-04-27T11:15:31.359Z,82.20
2019-04-27T11:18:00.865Z,85.20
2019-04-27T11:20:30.224Z,86.20
2019-04-27T11:23:07.016Z,85.60
2019-04-27T11:25:30.741Z,83.60
2019-04-27T11:28:00.195Z,84.40
2019-04-27T11:30:29.677Z,86.90
2019-04-27T11:32:59.411Z,85.20
2019-04-27T11:35:30.459Z,87.10
2019-04-27T11:38:00.231Z,89.60
2019-04-27T11:40:31.034Z,89.00
2019-04-27T11:43:00.500Z,88.30
2019-04-27T11:45:34.234Z,90.10
2019-04-27T11:48:06.106Z,87.30
2019-04-27T11:50:35.869Z,86.30
2019-04-27T11:53:06.222Z,84.10
2019-04-27T11:55:35.861Z,83.20
2019-04-27T11:58:06.530Z,86.30
2019-04-27T12:00:37.956Z,86.30
2019-04-27T12:03:07.379Z,84.40
2019-04-27T12:05:36.805Z,85.80
2019-04-27T12:08:06.403Z,82.40
2019-04-27T12:10:36.385Z,81.40
2019-04-27T12:13:07.637Z,82.40
2019-04-27T12:15:37.156Z,80.60
2019-04-27T12:18:08.905Z,81.50
2019-04-27T12:20:37.642Z,80.80
2019-04-27T12:23:07.092Z,81.60
2019-04-27T12:25:37.381Z,77.50
2019-04-27T12:28:08.686Z,79.70
2019-04-27T12:30:39.741Z,82.40
2019-04-27T12:33:09.294Z,80.70
2019-04-27T12:35:38.736Z,80.30
2019-04-27T12:38:08.205Z,83.30
2019-04-27T12:40:37.744Z,85.10
2019-04-27T12:43:08.368Z,84.00
2019-04-27T12:45:40.986Z,83.50
2019-04-27T12:48:09.117Z,85.40
2019-04-27T12:50:38.634Z,81.00
2019-04-27T12:53:09.795Z,81.80
2019-04-27T12:55:40.790Z,84.30
2019-04-27T12:58:11.887Z,83.30
2019-04-27T13:00:45.031Z,83.90
2019-04-27T13:03:16.035Z,83.40
2019-04-27T13:05:45.685Z,82.80
2019-04-27T13:08:15.118Z,83.40
2019-04-27T13:10:44.605Z,85.20
2019-04-27T13:13:14.015Z,86.00
2019-04-27T13:15:43.434Z,82.40
2019-04-27T13:18:12.888Z,83.40
2019-04-27T13:20:42.519Z,79.20
2019-04-27T13:23:12.003Z,78.60
2019-04-27T13:25:41.357Z,80.60
2019-04-27T13:28:11.877Z,80.10
2019-04-27T13:30:41.316Z,81.60
2019-04-27T13:33:10.759Z,81.30
2019-04-27T13:35:40.363Z,81.60
2019-04-27T13:38:11.012Z,80.20
2019-04-27T13:40:41.710Z,81.60
2019-04-27T13:43:12.836Z,83.80
2019-04-27T13:45:42.040Z,81.60
2019-04-27T13:48:13.232Z,82.20
2019-04-27T13:50:47.735Z,80.60
2019-04-27T13:53:18.100Z,78.20
2019-04-27T13:55:48.534Z,78.30
2019-04-27T13:58:19.229Z,80.30
2019-04-27T14:00:49.142Z,80.20
2019-04-27T14:03:20.894Z,81.50
2019-04-27T14:05:49.626Z,85.40
2019-04-27T14:08:19.011Z,82.30
2019-04-27T14:10:48.547Z,83.80
2019-04-27T14:13:19.761Z,80.40
2019-04-27T14:15:49.805Z,82.60
2019-04-27T14:18:19.587Z,83.80
2019-04-27T14:20:49.642Z,82.50
2019-04-27T14:23:21.054Z,85.10
2019-04-27T14:25:50.964Z,83.50
2019-04-27T14:28:20.847Z,85.00
2019-04-27T14:30:50.838Z,86.00
2019-04-27T14:33:20.729Z,88.00
2019-04-27T14:35:50.587Z,82.50
2019-04-27T14:38:20.483Z,80.60
2019-04-27T14:40:59.390Z,81.80
2019-04-27T14:43:33.470Z,82.70
2019-04-27T14:46:05.719Z,83.50
2019-04-27T14:48:35.497Z,83.30
2019-04-27T14:51:05.360Z,84.00
2019-04-27T14:53:35.253Z,81.60
2019-04-27T14:56:05.109Z,82.30
2019-04-27T14:58:35.247Z,83.90
2019-04-27T15:01:05.155Z,83.20
2019-04-27T15:03:34.969Z,85.10
2019-04-27T15:06:04.782Z,83.20
2019-04-27T15:08:38.263Z,85.50
2019-04-27T15:11:10.235Z,85.30
2019-04-27T15:13:37.763Z,84.10
2019-04-27T15:16:08.822Z,83.20
2019-04-27T15:18:43.587Z,85.20
2019-04-27T15:21:11.930Z,85.30
2019-04-27T15:23:41.993Z,86.60
2019-04-27T15:26:15.504Z,88.40
2019-04-27T15:28:49.244Z,86.70
2019-04-27T15:31:23.644Z,86.40
2019-04-27T15:33:54.434Z,87.50
2019-04-27T15:36:23.851Z,84.00
2019-04-27T15:38:55.691Z,85.60
2019-04-27T15:41:31.549Z,87.80
2019-04-27T15:44:07.025Z,90.20
2019-04-27T15:46:36.167Z,89.10
2019-04-27T15:49:09.786Z,90.00
2019-04-27T15:51:38.256Z,90.90
2019-04-27T15:54:08.301Z,90.90
2019-04-27T15:56:38.172Z,90.40
2019-04-27T15:59:08.628Z,91.40
2019-04-27T16:01:39.581Z,91.30
2019-04-27T16:04:11.206Z,91.60
2019-04-27T16:06:42.939Z,92.50
2019-04-27T16:09:15.992Z,92.30
2019-04-27T16:11:50.247Z,92.70
2019-04-27T16:14:15.960Z,93.20
2019-04-27T16:16:46.449Z,93.50
2019-04-27T16:19:15.962Z,94.00
2019-04-27T16:21:47.686Z,94.20
2019-04-27T16:24:20.839Z,93.70
2019-04-27T16:26:54.693Z,94.60
2019-04-27T16:29:22.976Z,95.10
2019-04-27T16:31:50.800Z,95.20
2019-04-27T16:34:20.181Z,96.20
2019-04-27T16:36:49.713Z,96.50
2019-04-27T16:39:20.455Z,96.60
2019-04-27T16:41:50.313Z,96.80
2019-04-27T16:44:20.011Z,97.70
2019-04-27T16:46:49.486Z,97.90
2019-04-27T16:49:20.677Z,97.80
2019-04-27T16:51:50.162Z,98.40
2019-04-27T16:54:21.380Z,98.40
2019-04-27T16:57:02.029Z,98.10
2019-04-27T16:59:42.641Z,98.50
2019-04-27T17:01:55.602Z,98.70
2019-04-27T17:04:25.115Z,98.90
2019-04-27T17:06:54.581Z,99.70
2019-04-27T17:09:24.060Z,99.20
2019-04-27T17:11:53.651Z,99.80
2019-04-27T17:14:29.204Z,99.90
2019-04-27T17:17:03.761Z,99.90
2019-04-27T17:19:35.932Z,99.90
2019-04-27T17:22:04.393Z,99.90
2019-04-27T17:24:42.014Z,99.90
2019-04-27T17:27:06.489Z,99.90
2019-04-27T17:29:38.633Z,99.90
2019-04-27T17:32:09.996Z,99.90
2019-04-27T17:34:39.766Z,99.90
2019-04-27T17:37:09.626Z,99.90
2019-04-27T17:39:39.216Z,99.90
2019-04-27T17:42:08.724Z,99.90
2019-04-27T17:44:39.370Z,99.90
2019-04-27T17:47:10.637Z,99.90
2019-04-27T17:49:41.448Z,99.90
2019-04-27T17:52:13.035Z,99.90
2019-04-27T17:54:47.515Z,99.90
2019-04-27T17:57:13.687Z,99.90
2019-04-27T17:59:43.266Z,99.90
2019-04-27T18:02:12.725Z,99.90
2019-04-27T18:04:42.134Z,99.90
2019-04-27T18:07:11.547Z,99.90
2019-04-27T18:09:43.729Z,99.90
2019-04-27T18:12:14.901Z,99.90
2019-04-27T18:14:43.660Z,99.90
2019-04-27T18:17:14.190Z,99.90
2019-04-27T18:19:45.583Z,99.90
2019-04-27T18:22:15.244Z,99.90
2019-04-27T18:24:46.383Z,99.90
2019-04-27T18:27:18.350Z,99.90
2019-04-27T18:29:48.648Z,99.90
2019-04-27T18:32:23.649Z,99.90
2019-04-27T18:34:51.475Z,99.90
2019-04-27T18:37:24.687Z,99.90
2019-04-27T18:39:54.939Z,99.90
2019-04-27T18:42:27.358Z,99.90
2019-04-27T18:44:54.493Z,99.90
2019-04-27T18:47:25.056Z,99.90
2019-04-27T18:49:54.335Z,99.90
2019-04-27T18:52:25.995Z,99.90
2019-04-27T18:54:55.571Z,99.90
2019-04-27T18:57:24.969Z,99.90
2019-04-27T18:59:54.526Z,99.90
2019-04-27T19:02:24.006Z,99.90
2019-04-27T19:04:53.398Z,99.90
2019-04-27T19:07:22.869Z,99.90
2019-04-27T19:09:52.324Z,99.90
2019-04-27T19:12:21.773Z,99.90
2019-04-27T19:14:51.266Z,99.90
2019-04-27T19:17:21.862Z,99.90
2019-04-27T19:19:51.285Z,99.90
2019-04-27T19:22:20.754Z,99.90
2019-04-27T19:24:50.309Z,99.90
2019-04-27T19:27:21.618Z,99.90
2019-04-27T19:29:52.892Z,99.90
2019-04-27T19:32:22.446Z,99.90
2019-04-27T19:34:51.927Z,99.90
2019-04-27T19:37:21.361Z,99.90
2019-04-27T19:39:50.913Z,99.90
2019-04-27T19:42:20.630Z,99.90
2019-04-27T19:44:50.188Z,99.90
2019-04-27T19:47:19.663Z,99.90
2019-04-27T19:49:49.088Z,99.90
2019-04-27T19:52:18.616Z,99.90
2019-04-27T19:54:49.391Z,99.90
2019-04-27T19:57:30.917Z,99.90
2019-04-27T19:59:53.160Z,99.90
2019-04-27T20:02:23.903Z,99.90
2019-04-27T20:04:55.553Z,99.90
2019-04-27T20:07:26.274Z,99.90
2019-04-27T20:09:58.494Z,99.90
2019-04-27T20:12:28.055Z,99.90
2019-04-27T20:14:57.512Z,99.90
2019-04-27T20:17:28.114Z,99.90
2019-04-27T20:19:58.110Z,99.90
2019-04-27T20:22:27.670Z,99.90
2019-04-27T20:24:57.327Z,99.90
2019-04-27T20:27:26.837Z,99.90
2019-04-27T20:29:56.388Z,99.90
2019-04-27T20:32:25.968Z,99.90
2019-04-27T20:34:55.543Z,99.90
2019-04-27T20:37:24.941Z,99.90
2019-04-27T20:39:54.453Z,99.90
2019-04-27T20:42:23.881Z,99.90
2019-04-27T20:44:53.397Z,99.90
2019-04-27T20:47:22.967Z,99.90
2019-04-27T20:49:52.469Z,99.90
2019-04-27T20:52:23.463Z,99.90
2019-04-27T20:54:52.897Z,99.90
2019-04-27T20:57:22.339Z,99.90
2019-04-27T20:59:52.276Z,99.90
2019-04-27T21:02:24.122Z,99.90
2019-04-27T21:04:57.399Z,99.90
2019-04-27T21:07:31.151Z,99.90
2019-04-27T21:10:00.614Z,99.90
2019-04-27T21:12:31.472Z,99.90
2019-04-27T21:15:01.004Z,99.90
2019-04-27T21:17:30.642Z,99.90
2019-04-27T21:20:00.259Z,99.90
2019-04-27T21:22:31.358Z,99.90
2019-04-27T21:25:01.632Z,99.90
2019-04-27T21:27:31.948Z,99.90
2019-04-27T21:30:02.751Z,99.90
2019-04-27T21:32:33.891Z,99.90
2019-04-27T21:35:03.444Z,99.90
2019-04-27T21:37:33.357Z,99.90
2019-04-27T21:40:04.665Z,99.90
2019-04-27T21:42:34.283Z,99.90
2019-04-27T21:45:05.689Z,99.90
2019-04-27T21:47:35.173Z,99.90
2019-04-27T21:50:06.513Z,99.90
2019-04-27T21:52:38.385Z,99.90
2019-04-27T21:55:11.511Z,99.90
2019-04-27T21:57:41.134Z,99.90
2019-04-27T22:00:16.406Z,99.90
2019-04-27T22:02:48.035Z,99.90
2019-04-27T22:05:17.557Z,99.90
2019-04-27T22:07:47.011Z,99.90
2019-04-27T22:10:16.552Z,99.90
2019-04-27T22:12:46.069Z,99.90
2019-04-27T22:15:15.481Z,99.90
2019-04-27T22:17:44.937Z,99.90
2019-04-27T22:20:16.489Z,99.90
2019-04-27T22:22:47.661Z,99.90
2019-04-27T22:25:18.672Z,99.90
2019-04-27T22:27:48.139Z,99.90
2019-04-27T22:30:17.780Z,99.90
2019-04-27T22:32:47.193Z,99.90
2019-04-27T22:35:16.793Z,99.90
2019-04-27T22:37:46.292Z,99.90
2019-04-27T22:40:15.513Z,99.90
2019-04-27T22:42:46.656Z,99.90
2019-04-27T22:45:17.774Z,99.90
2019-04-27T22:47:47.217Z,99.90
2019-04-27T22:50:16.843Z,99.90
2019-04-27T22:52:46.363Z,99.90
2019-04-27T22:55:16.028Z,99.90
2019-04-27T22:57:47.103Z,99.90
2019-04-27T23:00:18.627Z,99.90
2019-04-27T23:02:52.260Z,99.90
2019-04-27T23:05:21.973Z,99.90
2019-04-27T23:07:51.817Z,99.90
2019-04-27T23:10:21.442Z,99.90
2019-04-27T23:12:51.116Z,99.90
2019-04-27T23:15:22.414Z,99.90
2019-04-27T23:17:52.982Z,99.90
2019-04-27T23:20:22.615Z,99.90
2019-04-27T23:22:52.095Z,99.90
2019-04-27T23:25:21.553Z,99.90
2019-04-27T23:27:51.494Z,99.90
2019-04-27T23:30:23.240Z,99.90
2019-04-27T23:32:53.596Z,99.90
2019-04-27T23:35:23.047Z,99.90
2019-04-27T23:37:52.845Z,99.90
2019-04-27T23:40:22.678Z,99.90
2019-04-27T23:42:52.124Z,99.90
2019-04-27T23:45:22.513Z,99.90
2019-04-27T23:47:52.186Z,99.90
2019-04-27T23:50:21.997Z,99.90
2019-04-27T23:52:54.355Z,99.90
2019-04-27T23:55:25.551Z,99.90
2019-04-27T23:57:55.096Z,99.90
